createdAt,value
2023-05-12T00:01:17.778Z,101353.61
2023-05-12T00:03:44.892Z,101353.05
2023-05-12T00:06:12.603Z,101353.87
2023-05-12T00:08:39.464Z,101355.77
2023-05-12T00:11:06.338Z,101353.20
2023-05-12T00:13:33.417Z,101351.06
2023-05-12T00:16:00.725Z,101349.39
2023-05-12T00:18:28.753Z,101351.85
2023-05-12T00:20:56.067Z,101354.29
2023-05-12T00:23:23.436Z,101356.32
2023-05-12T00:25:50.534Z,101355.44
2023-05-12T00:28:18.402Z,101354.63
2023-05-12T00:30:45.808Z,101358.30
2023-05-12T00:33:12.832Z,101359.06
2023-05-12T00:35:39.873Z,101360.66
2023-05-12T00:38:06.780Z,101359.18
2023-05-12T00:40:33.882Z,101356.22
2023-05-12T00:43:00.722Z,101358.06
2023-05-12T00:45:29.950Z,101358.77
2023-05-12T00:47:57.329Z,101363.07
2023-05-12T00:50:24.530Z,101363.70
2023-05-12T00:52:51.366Z,101362.10
2023-05-12T00:55:18.257Z,101361.20
2023-05-12T00:57:45.662Z,101363.05
2023-05-12T01:00:14.193Z,101366.34
2023-05-12T01:02:42.382Z,101363.50
2023-05-12T01:05:10.146Z,101360.80
2023-05-12T01:07:37.761Z,101364.75
2023-05-12T01:10:05.362Z,101368.06
2023-05-12T01:12:34.917Z,101367.20
2023-05-12T01:15:02.812Z,101368.05
2023-05-12T01:17:32.979Z,101372.16
2023-05-12T01:20:01.843Z,101372.59
2023-05-12T01:22:31.378Z,101373.15
2023-05-12T01:25:00.038Z,101371.76
2023-05-12T01:27:29.002Z,101370.58
2023-05-12T01:29:59.048Z,101374.39
2023-05-12T01:32:26.569Z,101375.67
2023-05-12T01:34:53.775Z,101379.85
2023-05-12T01:37:21.336Z,101378.57
2023-05-12T01:39:48.621Z,101375.22
2023-05-12T01:42:20.406Z,101373.38
2023-05-12T01:44:47.736Z,101374.30
2023-05-12T01:47:16.174Z,101371.34
2023-05-12T01:49:49.252Z,101374.79
2023-05-12T01:52:16.656Z,101375.83
2023-05-12T01:54:43.780Z,101377.15
2023-05-12T01:57:11.455Z,101377.25
2023-05-12T01:59:38.787Z,101379.80
2023-05-12T02:02:06.765Z,101378.20
2023-05-12T02:04:34.816Z,101379.29
2023-05-12T02:07:02.437Z,101380.21
2023-05-12T02:09:29.592Z,101377.52
2023-05-12T02:12:00.107Z,101380.37
2023-05-12T02:14:27.041Z,101379.55
2023-05-12T02:16:55.653Z,101377.88
2023-05-12T02:19:23.661Z,101380.20
2023-05-12T02:21:50.587Z,101384.13
2023-05-12T02:24:17.621Z,101386.02
2023-05-12T02:26:45.115Z,101383.00
2023-05-12T02:29:13.183Z,101386.43
2023-05-12T02:31:40.369Z,101382.89
2023-05-12T02:34:16.082Z,101385.46
2023-05-12T02:36:42.996Z,101384.43
2023-05-12T02:39:10.906Z,101385.63
2023-05-12T02:41:37.899Z,101386.98
2023-05-12T02:44:05.340Z,101387.28
2023-05-12T02:46:32.443Z,101389.90
2023-05-12T02:48:59.482Z,101390.86
2023-05-12T02:51:26.455Z,101388.27
2023-05-12T02:53:53.404Z,101385.46
2023-05-12T02:56:20.909Z,101389.16
2023-05-12T02:58:48.243Z,101388.83
2023-05-12T03:01:15.188Z,101388.30
2023-05-12T03:03:42.524Z,101389.52
2023-05-12T03:06:09.976Z,101388.19
2023-05-12T03:08:37.080Z,101390.44
2023-05-12T03:11:04.391Z,101391.85
2023-05-12T03:13:31.541Z,101393.42
2023-05-12T03:16:01.772Z,101391.30
2023-05-12T03:18:29.994Z,101393.18
2023-05-12T03:20:57.292Z,101393.01
2023-05-12T03:23:24.850Z,101399.74
2023-05-12T03:25:51.817Z,101406.55
2023-05-12T03:28:19.209Z,101408.16
2023-05-12T03:30:46.129Z,101404.77
2023-05-12T03:33:13.191Z,101409.66
2023-05-12T03:35:40.166Z,101408.27
2023-05-12T03:38:07.264Z,101413.43
2023-05-12T03:40:34.194Z,101415.02
2023-05-12T03:43:01.174Z,101416.73
2023-05-12T03:45:28.203Z,101415.84
2023-05-12T03:47:55.449Z,101415.27
2023-05-12T03:50:22.570Z,101415.86
2023-05-12T03:52:49.581Z,101411.36
2023-05-12T03:55:16.908Z,101409.85
2023-05-12T03:57:44.042Z,101411.33
2023-05-12T04:00:11.888Z,101406.39
2023-05-12T04:02:44.200Z,101405.79
2023-05-12T04:05:11.318Z,101409.24
2023-05-12T04:07:38.479Z,101414.05
2023-05-12T04:10:05.865Z,101411.84
2023-05-12T04:12:33.053Z,101409.59
2023-05-12T04:15:00.475Z,101415.84
2023-05-12T04:17:27.514Z,101417.69
2023-05-12T04:19:54.631Z,101417.80
2023-05-12T04:22:23.443Z,101418.29
2023-05-12T04:24:52.154Z,101421.02
2023-05-12T04:27:19.246Z,101423.81
2023-05-12T04:29:46.197Z,101426.92
2023-05-12T04:32:13.579Z,101428.50
2023-05-12T04:34:40.710Z,101430.17
2023-05-12T04:37:08.361Z,101433.45
2023-05-12T04:39:35.575Z,101435.42
2023-05-12T04:42:03.256Z,101440.81
2023-05-12T04:44:32.684Z,101440.07
2023-05-12T04:47:00.228Z,101438.23
2023-05-12T04:49:27.272Z,101438.14
2023-05-12T04:51:54.490Z,101436.36
2023-05-12T04:54:21.956Z,101434.51
2023-05-12T04:56:49.288Z,101430.48
2023-05-12T04:59:16.289Z,101427.59
2023-05-12T05:01:44.201Z,101423.74
2023-05-12T05:04:11.099Z,101424.88
2023-05-12T05:06:38.030Z,101425.02
2023-05-12T05:09:05.874Z,101427.39
2023-05-12T05:11:32.838Z,101428.91
2023-05-12T05:13:59.965Z,101428.63
2023-05-12T05:16:28.448Z,101433.85
2023-05-12T05:18:58.623Z,101436.94
2023-05-12T05:21:26.883Z,101440.05
2023-05-12T05:23:54.487Z,101436.54
2023-05-12T05:26:22.355Z,101435.23
2023-05-12T05:28:55.509Z,101432.89
2023-05-12T05:31:24.354Z,101433.81
2023-05-12T05:33:51.745Z,101435.17
2023-05-12T05:36:20.890Z,101432.91
2023-05-12T05:38:48.980Z,101431.30
2023-05-12T05:41:16.284Z,101433.46
2023-05-12T05:43:43.255Z,101429.54
2023-05-12T05:46:10.445Z,101432.98
2023-05-12T05:48:38.626Z,101430.40
2023-05-12T05:51:06.749Z,101435.36
2023-05-12T05:53:33.791Z,101432.27
2023-05-12T05:56:01.550Z,101430.85
2023-05-12T05:58:28.925Z,101432.48
2023-05-12T06:00:56.118Z,101433.67
2023-05-12T06:03:23.608Z,101433.65
2023-05-12T06:05:50.729Z,101435.54
2023-05-12T06:08:18.050Z,101435.83
2023-05-12T06:10:45.504Z,101437.58
2023-05-12T06:13:12.557Z,101433.67
2023-05-12T06:15:39.517Z,101432.71
2023-05-12T06:18:07.120Z,101433.48
2023-05-12T06:20:34.843Z,101434.99
2023-05-12T06:23:02.137Z,101436.43
2023-05-12T06:25:29.318Z,101439.46
2023-05-12T06:27:56.384Z,101440.52
2023-05-12T06:30:23.799Z,101443.36
2023-05-12T06:35:22.543Z,101439.92
2023-05-12T06:37:51.072Z,101440.77
2023-05-12T06:40:18.247Z,101442.23
2023-05-12T06:42:45.284Z,101441.02
2023-05-12T06:45:16.285Z,101439.56
2023-05-12T06:47:43.572Z,101445.43
2023-05-12T06:50:11.021Z,101445.02
2023-05-12T06:52:38.316Z,101444.66
2023-05-12T06:55:07.155Z,101444.15
2023-05-12T06:57:34.061Z,101446.08
2023-05-12T07:00:03.219Z,101449.36
2023-05-12T07:02:30.838Z,101446.81
2023-05-12T07:04:58.013Z,101444.73
2023-05-12T07:07:24.967Z,101441.92
2023-05-12T07:09:51.899Z,101439.39
2023-05-12T07:12:18.812Z,101440.22
2023-05-12T07:14:45.778Z,101439.30
2023-05-12T07:17:12.762Z,101439.00
2023-05-12T07:19:40.281Z,101439.71
2023-05-12T07:22:07.330Z,101441.45
2023-05-12T07:24:34.359Z,101442.79
2023-05-12T07:27:01.376Z,101440.35
2023-05-12T07:29:28.484Z,101438.90
2023-05-12T07:31:55.934Z,101439.48
2023-05-12T07:34:22.912Z,101441.52
2023-05-12T07:36:49.965Z,101441.61
2023-05-12T07:39:23.361Z,101441.10
2023-05-12T07:41:51.159Z,101441.88
2023-05-12T07:44:18.064Z,101441.67
2023-05-12T07:46:45.029Z,101441.85
2023-05-12T07:49:12.086Z,101442.39
2023-05-12T07:51:39.571Z,101443.27
2023-05-12T07:54:07.309Z,101437.86
2023-05-12T07:56:34.372Z,101435.11
2023-05-12T07:59:01.326Z,101435.91
2023-05-12T08:01:28.230Z,101433.72
2023-05-12T08:03:55.319Z,101435.67
2023-05-12T08:06:22.264Z,101433.51
2023-05-12T08:08:49.942Z,101433.42
2023-05-12T08:11:16.905Z,101431.84
2023-05-12T08:13:43.735Z,101428.08
2023-05-12T08:16:10.573Z,101426.45
2023-05-12T08:18:37.534Z,101428.72
2023-05-12T08:21:04.391Z,101428.84
2023-05-12T08:23:31.351Z,101426.98
2023-05-12T08:25:58.202Z,101423.98
2023-05-12T08:28:25.032Z,101418.46
2023-05-12T08:30:51.887Z,101416.39
2023-05-12T08:33:18.738Z,101415.80
2023-05-12T08:35:45.611Z,101416.45
2023-05-12T08:38:12.483Z,101417.73
2023-05-12T08:40:47.140Z,101414.63
2023-05-12T08:43:26.112Z,101414.13
2023-05-12T08:45:57.736Z,101413.91
2023-05-12T08:48:27.612Z,101415.59
2023-05-12T08:50:54.588Z,101416.67
2023-05-12T08:53:24.510Z,101414.44
2023-05-12T08:57:08.984Z,101413.48
2023-05-12T08:58:42.016Z,101408.92
2023-05-12T09:01:10.324Z,101410.27
2023-05-12T09:03:37.212Z,101407.06
2023-05-12T09:06:04.401Z,101406.00
2023-05-12T09:08:33.266Z,101408.04
2023-05-12T09:11:00.596Z,101404.98
2023-05-12T09:13:36.789Z,101406.34
2023-05-12T09:16:04.243Z,101401.86
2023-05-12T09:18:56.967Z,101399.50
2023-05-12T09:21:24.074Z,101402.04
2023-05-12T09:23:59.162Z,101399.85
2023-05-12T09:26:27.131Z,101396.01
2023-05-12T09:28:55.163Z,101391.08
2023-05-12T09:31:23.140Z,101386.70
2023-05-12T09:33:51.055Z,101388.88
2023-05-12T09:36:27.042Z,101381.48
2023-05-12T09:39:09.256Z,101381.58
2023-05-12T09:41:40.135Z,101382.54
2023-05-12T09:44:08.587Z,101384.88
2023-05-12T09:46:36.075Z,101384.23
2023-05-12T09:49:06.597Z,101380.28
2023-05-12T09:51:33.512Z,101379.35
2023-05-12T09:54:00.943Z,101377.40
2023-05-12T09:56:29.390Z,101374.89
2023-05-12T09:58:59.515Z,101373.58
2023-05-12T10:01:28.076Z,101369.40
2023-05-12T10:03:56.725Z,101366.98
2023-05-12T10:06:28.937Z,101362.88
2023-05-12T10:10:52.427Z,101366.14
2023-05-12T10:13:19.383Z,101359.89
2023-05-12T10:15:47.436Z,101356.58
2023-05-12T10:18:15.069Z,101362.27
2023-05-12T10:20:44.168Z,101360.95
2023-05-12T10:23:12.794Z,101357.86
2023-05-12T10:25:41.453Z,101350.98
2023-05-12T10:28:08.985Z,101353.34
2023-05-12T10:30:38.168Z,101350.54
2023-05-12T10:33:05.960Z,101348.02
2023-05-12T10:35:34.362Z,101343.95
2023-05-12T10:38:08.873Z,101344.45
2023-05-12T10:40:36.088Z,101344.78
2023-05-12T10:43:03.310Z,101340.31
2023-05-12T10:45:35.627Z,101340.40
2023-05-12T10:48:07.101Z,101338.73
2023-05-12T10:50:34.130Z,101342.55
2023-05-12T10:53:01.053Z,101339.48
2023-05-12T10:55:35.973Z,101339.21
2023-05-12T10:58:10.893Z,101337.77
2023-05-12T11:00:46.778Z,101334.40
2023-05-12T11:03:15.260Z,101330.15
2023-05-12T11:05:44.187Z,101325.52
2023-05-12T11:08:11.848Z,101325.25
2023-05-12T11:10:41.680Z,101328.59
2023-05-12T11:13:08.625Z,101325.48
2023-05-12T11:15:35.465Z,101324.24
2023-05-12T11:18:03.308Z,101321.77
2023-05-12T11:20:31.044Z,101317.79
2023-05-12T11:22:58.168Z,101322.13
2023-05-12T11:25:27.403Z,101323.98
2023-05-12T11:27:54.592Z,101322.39
2023-05-12T11:30:21.953Z,101319.50
2023-05-12T11:32:48.901Z,101313.15
2023-05-12T11:35:17.749Z,101316.27
2023-05-12T11:37:45.448Z,101309.76
2023-05-12T11:40:16.519Z,101308.77
2023-05-12T11:42:48.310Z,101306.21
2023-05-12T11:45:22.488Z,101296.73
2023-05-12T11:47:49.527Z,101295.27
2023-05-12T11:50:23.592Z,101299.52
2023-05-12T11:52:51.577Z,101299.61
2023-05-12T11:55:23.630Z,101300.29
2023-05-12T11:57:58.860Z,101295.48
2023-05-12T12:00:33.232Z,101288.90
2023-05-12T12:03:13.967Z,101289.54
2023-05-12T12:05:42.030Z,101289.39
2023-05-12T12:08:13.693Z,101291.66
2023-05-12T12:10:47.210Z,101289.21
2023-05-12T12:13:23.133Z,101287.04
2023-05-12T12:15:50.852Z,101284.36
2023-05-12T12:18:19.178Z,101278.86
2023-05-12T12:20:49.089Z,101276.55
2023-05-12T12:23:16.045Z,101280.14
2023-05-12T12:25:43.672Z,101271.54
2023-05-12T12:28:10.800Z,101277.43
2023-05-12T12:30:37.960Z,101275.05
2023-05-12T12:33:04.976Z,101274.87
2023-05-12T12:35:31.984Z,101271.85
2023-05-12T12:37:59.498Z,101273.32
2023-05-12T12:40:26.328Z,101267.90
2023-05-12T12:42:53.538Z,101263.77
2023-05-12T12:45:20.724Z,101262.48
2023-05-12T12:47:47.759Z,101263.75
2023-05-12T12:50:15.036Z,101256.70
2023-05-12T12:52:42.032Z,101257.77
2023-05-12T12:55:10.026Z,101256.61
2023-05-12T12:57:37.048Z,101251.06
2023-05-12T13:00:04.999Z,101251.90
2023-05-12T13:02:31.898Z,101249.96
2023-05-12T13:04:58.922Z,101246.06
2023-05-12T13:07:26.028Z,101246.10
2023-05-12T13:09:53.097Z,101248.80
2023-05-12T13:12:19.891Z,101249.37
2023-05-12T13:14:46.748Z,101249.80
2023-05-12T13:17:13.553Z,101248.55
2023-05-12T13:19:40.736Z,101247.31
2023-05-12T13:22:07.688Z,101249.48
2023-05-12T13:24:34.540Z,101246.31
2023-05-12T13:27:01.392Z,101243.88
2023-05-12T13:29:28.441Z,101245.27
2023-05-12T13:31:55.580Z,101243.13
2023-05-12T13:34:22.548Z,101243.81
2023-05-12T13:36:49.572Z,101241.13
2023-05-12T13:39:18.411Z,101235.18
2023-05-12T13:41:46.565Z,101240.01
2023-05-12T13:44:13.426Z,101236.31
2023-05-12T13:46:40.913Z,101234.31
2023-05-12T13:49:07.938Z,101232.03
2023-05-12T13:51:34.915Z,101230.46
2023-05-12T13:54:01.885Z,101222.98
2023-05-12T13:56:28.694Z,101219.15
2023-05-12T13:58:55.561Z,101222.70
2023-05-12T14:01:22.535Z,101219.89
2023-05-12T14:03:49.556Z,101220.30
2023-05-12T14:06:16.465Z,101216.66
2023-05-12T14:08:43.338Z,101213.67
2023-05-12T14:11:10.282Z,101212.05
2023-05-12T14:13:37.257Z,101208.60
2023-05-12T14:16:04.897Z,101213.36
2023-05-12T14:18:32.455Z,101212.79
2023-05-12T14:20:59.513Z,101212.75
2023-05-12T14:23:26.459Z,101217.27
2023-05-12T14:25:53.407Z,101216.98
2023-05-12T14:28:20.413Z,101216.02
2023-05-12T14:30:48.932Z,101218.52
2023-05-12T14:33:15.827Z,101216.25
2023-05-12T14:35:44.718Z,101217.38
2023-05-12T14:38:15.201Z,101217.09
2023-05-12T14:40:42.702Z,101214.94
2023-05-12T14:43:09.675Z,101212.66
2023-05-12T14:45:36.578Z,101209.89
2023-05-12T14:48:03.657Z,101208.80
2023-05-12T14:50:30.674Z,101212.88
2023-05-12T14:52:57.703Z,101212.38
2023-05-12T14:55:25.396Z,101213.95
2023-05-12T14:57:52.365Z,101210.62
2023-05-12T15:00:23.561Z,101211.66
2023-05-12T15:02:50.538Z,101208.00
2023-05-12T15:05:17.458Z,101209.34
2023-05-12T15:07:44.408Z,101208.80
2023-05-12T15:10:11.317Z,101206.92
2023-05-12T15:12:38.135Z,101208.80
2023-05-12T15:15:08.533Z,101206.28
2023-05-12T15:17:35.677Z,101209.52
2023-05-12T15:20:03.855Z,101207.17
2023-05-12T15:22:31.689Z,101207.24
2023-05-12T15:24:59.161Z,101205.96
2023-05-12T15:27:26.711Z,101204.05
2023-05-12T15:29:54.076Z,101202.77
2023-05-12T15:32:21.012Z,101199.83
2023-05-12T15:34:47.957Z,101201.45
2023-05-12T15:37:14.860Z,101201.52
2023-05-12T15:39:41.697Z,101198.67
2023-05-12T15:42:09.407Z,101197.30
2023-05-12T15:44:36.462Z,101197.30
2023-05-12T15:47:03.527Z,101199.84
2023-05-12T15:49:30.459Z,101199.17
2023-05-12T15:51:57.408Z,101193.86
2023-05-12T15:54:26.615Z,101194.38
2023-05-12T15:56:53.445Z,101196.14
2023-05-12T15:59:20.415Z,101198.23
2023-05-12T16:01:47.362Z,101199.34
2023-05-12T16:04:14.387Z,101196.77
2023-05-12T16:06:41.298Z,101197.16
2023-05-12T16:09:09.566Z,101198.50
2023-05-12T16:11:36.525Z,101201.94
2023-05-12T16:14:03.394Z,101198.58
2023-05-12T16:16:30.527Z,101199.55
2023-05-12T16:18:57.867Z,101200.08
2023-05-12T16:21:24.895Z,101199.83
2023-05-12T16:23:51.808Z,101201.49
2023-05-12T16:26:19.469Z,101201.44
2023-05-12T16:28:46.386Z,101202.10
2023-05-12T16:31:18.020Z,101199.27
2023-05-12T16:33:45.242Z,101199.85
2023-05-12T16:36:12.129Z,101202.41
2023-05-12T16:38:38.968Z,101209.84
2023-05-12T16:41:05.908Z,101213.54
2023-05-12T16:43:32.764Z,101206.43
2023-05-12T16:46:01.335Z,101207.05
2023-05-12T16:48:33.603Z,101204.89
2023-05-12T16:51:02.551Z,101205.19
2023-05-12T16:53:30.201Z,101207.30
2023-05-12T16:55:58.093Z,101210.98
2023-05-12T16:58:26.133Z,101212.46
2023-05-12T17:00:53.173Z,101215.89
2023-05-12T17:03:20.228Z,101217.88
2023-05-12T17:05:53.311Z,101217.21
2023-05-12T17:08:27.328Z,101220.50
2023-05-12T17:10:54.483Z,101222.33
2023-05-12T17:13:21.623Z,101223.36
2023-05-12T17:15:48.632Z,101226.95
2023-05-12T17:18:15.558Z,101224.61
2023-05-12T17:20:42.358Z,101228.15
2023-05-12T17:23:09.614Z,101225.06
2023-05-12T17:25:36.800Z,101223.88
2023-05-12T17:28:04.632Z,101228.60
2023-05-12T17:30:32.132Z,101229.48
2023-05-12T17:32:58.996Z,101235.54
2023-05-12T17:35:25.974Z,101235.04
2023-05-12T17:37:55.590Z,101237.29
2023-05-12T17:40:22.684Z,101238.84
2023-05-12T17:42:50.386Z,101241.15
2023-05-12T17:45:17.575Z,101244.20
2023-05-12T17:47:45.016Z,101242.98
2023-05-12T17:50:12.822Z,101247.11
2023-05-12T17:52:39.898Z,101249.47
2023-05-12T17:55:07.130Z,101251.94
2023-05-12T17:57:34.453Z,101252.04
2023-05-12T18:00:05.795Z,101254.35
2023-05-12T18:02:41.264Z,101251.55
2023-05-12T18:05:09.165Z,101254.73
2023-05-12T18:07:36.352Z,101255.20
2023-05-12T18:10:03.341Z,101256.13
2023-05-12T18:12:30.230Z,101256.17
2023-05-12T18:14:57.257Z,101258.02
2023-05-12T18:17:24.279Z,101260.35
2023-05-12T18:19:51.474Z,101258.80
2023-05-12T18:22:18.520Z,101264.81
2023-05-12T18:24:45.638Z,101265.81
2023-05-12T18:27:12.544Z,101268.83
2023-05-12T18:29:39.306Z,101269.88
2023-05-12T18:32:06.237Z,101269.52
2023-05-12T18:34:33.704Z,101274.36
2023-05-12T18:37:00.795Z,101279.12
2023-05-12T18:39:28.419Z,101279.25
2023-05-12T18:41:55.494Z,101286.25
2023-05-12T18:44:22.442Z,101289.02
2023-05-12T18:46:49.353Z,101291.92
2023-05-12T18:49:16.518Z,101293.04
2023-05-12T18:51:43.488Z,101296.19
2023-05-12T18:54:10.718Z,101294.72
2023-05-12T18:56:37.608Z,101289.58
2023-05-12T18:59:04.675Z,101287.95
2023-05-12T19:01:32.010Z,101287.83
2023-05-12T19:03:59.191Z,101283.70
2023-05-12T19:06:26.841Z,101283.21
2023-05-12T19:08:53.930Z,101285.20
2023-05-12T19:11:21.122Z,101283.89
2023-05-12T19:13:50.734Z,101279.97
2023-05-12T19:16:18.469Z,101279.55
2023-05-12T19:18:46.054Z,101276.20
2023-05-12T19:21:13.156Z,101275.80
2023-05-12T19:23:40.177Z,101276.27
2023-05-12T19:26:07.434Z,101272.33
2023-05-12T19:28:34.386Z,101271.35
2023-05-12T19:31:01.363Z,101272.74
2023-05-12T19:33:29.526Z,101273.73
2023-05-12T19:35:56.746Z,101272.04
2023-05-12T19:38:23.930Z,101274.96
2023-05-12T19:40:50.961Z,101272.30
2023-05-12T19:43:17.932Z,101271.48
2023-05-12T19:45:44.825Z,101272.36
2023-05-12T19:48:12.007Z,101275.20
2023-05-12T19:50:39.125Z,101274.23
2023-05-12T19:53:06.067Z,101270.06
2023-05-12T19:55:33.159Z,101270.98
2023-05-12T19:58:02.045Z,101269.73
2023-05-12T20:00:28.988Z,101270.84
2023-05-12T20:02:56.063Z,101273.52
2023-05-12T20:05:23.415Z,101271.89
2023-05-12T20:07:51.153Z,101275.57
2023-05-12T20:10:18.281Z,101283.24
2023-05-12T20:12:45.097Z,101281.38
2023-05-12T20:15:12.192Z,101279.44
2023-05-12T20:17:39.179Z,101277.80
2023-05-12T20:20:07.186Z,101274.20
2023-05-12T20:22:34.111Z,101279.38
2023-05-12T20:25:04.516Z,101281.56
2023-05-12T20:27:32.239Z,101281.23
2023-05-12T20:29:59.229Z,101280.45
2023-05-12T20:32:26.193Z,101281.17
2023-05-12T20:34:53.115Z,101279.41
2023-05-12T20:37:20.731Z,101281.45
2023-05-12T20:39:47.660Z,101284.54
2023-05-12T20:42:14.720Z,101284.28
2023-05-12T20:44:42.434Z,101282.23
2023-05-12T20:47:09.977Z,101284.48
2023-05-12T20:49:37.103Z,101290.19
2023-05-12T20:52:04.152Z,101298.55
2023-05-12T20:54:31.011Z,101299.06
2023-05-12T20:56:57.868Z,101296.87
2023-05-12T20:59:24.801Z,101298.91
2023-05-12T21:01:51.730Z,101298.44
2023-05-12T21:04:18.803Z,101298.62
2023-05-12T21:06:45.796Z,101298.23
2023-05-12T21:09:12.667Z,101299.23
2023-05-12T21:11:39.615Z,101297.85
2023-05-12T21:14:06.512Z,101303.56
2023-05-12T21:16:33.609Z,101308.62
2023-05-12T21:19:00.577Z,101311.98
2023-05-12T21:21:28.800Z,101310.79
2023-05-12T21:23:55.838Z,101305.80
2023-05-12T21:26:22.739Z,101305.27
2023-05-12T21:28:49.577Z,101303.95
2023-05-12T21:31:16.526Z,101303.80
2023-05-12T21:33:43.499Z,101304.04
2023-05-12T21:36:10.303Z,101305.80
2023-05-12T21:38:37.194Z,101307.20
2023-05-12T21:41:04.248Z,101309.55
2023-05-12T21:43:31.263Z,101308.41
2023-05-12T21:46:03.111Z,101312.16
2023-05-12T21:48:30.084Z,101315.52
2023-05-12T21:50:59.112Z,101313.67
2023-05-12T21:53:26.109Z,101317.38
2023-05-12T21:55:53.265Z,101321.14
2023-05-12T21:58:20.159Z,101318.85
2023-05-12T22:00:47.095Z,101316.04
2023-05-12T22:03:14.152Z,101317.63
2023-05-12T22:05:41.037Z,101316.91
2023-05-12T22:08:07.892Z,101313.35
2023-05-12T22:10:34.753Z,101313.19
2023-05-12T22:13:01.796Z,101313.08
2023-05-12T22:15:28.940Z,101311.30
2023-05-12T22:17:55.908Z,101312.75
2023-05-12T22:20:23.474Z,101313.06
2023-05-12T22:22:50.473Z,101311.92
2023-05-12T22:25:17.357Z,101310.57
2023-05-12T22:28:37.456Z,101313.91
2023-05-12T22:31:04.376Z,101317.77
2023-05-12T22:33:32.519Z,101318.26
2023-05-12T22:36:00.302Z,101317.66
2023-05-12T22:38:27.676Z,101317.61
2023-05-12T22:40:54.557Z,101313.81
2023-05-12T22:43:21.508Z,101311.04
2023-05-12T22:45:52.260Z,101314.30
2023-05-12T22:48:19.829Z,101313.54
2023-05-12T22:50:46.654Z,101311.73
2023-05-12T22:53:13.674Z,101317.71
2023-05-12T22:55:40.548Z,101315.65
2023-05-12T22:58:07.561Z,101315.79
2023-05-12T23:00:34.527Z,101313.44
2023-05-12T23:03:03.415Z,101311.71
2023-05-12T23:05:30.495Z,101312.07
2023-05-12T23:07:57.540Z,101309.69
2023-05-12T23:10:24.624Z,101313.10
2023-05-12T23:12:51.669Z,101315.14
2023-05-12T23:15:18.642Z,101315.59
2023-05-12T23:17:45.535Z,101313.31
2023-05-12T23:20:12.951Z,101316.02
2023-05-12T23:22:39.784Z,101313.88
2023-05-12T23:25:07.345Z,101312.17
2023-05-12T23:27:34.362Z,101311.29
2023-05-12T23:30:01.169Z,101310.29
2023-05-12T23:32:28.274Z,101312.30
2023-05-12T23:34:55.252Z,101311.17
2023-05-12T23:37:22.191Z,101318.95
2023-05-12T23:39:49.152Z,101318.92
2023-05-12T23:42:17.237Z,101319.55
2023-05-12T23:44:44.152Z,101318.55
2023-05-12T23:47:11.038Z,101320.29
2023-05-12T23:49:38.010Z,101320.48
2023-05-12T23:52:05.109Z,101323.27
2023-05-12T23:54:32.027Z,101322.29
2023-05-12T23:56:58.851Z,101324.27
2023-05-12T23:59:25.697Z,101324.77
